createdAt,value
2023-01-11T00:00:18.548Z,4.88
2023-01-11T00:02:48.577Z,6.65
2023-01-11T00:05:18.099Z,4.67
2023-01-11T00:07:47.840Z,4.70
2023-01-11T00:10:17.856Z,6.60
2023-01-11T00:12:48.320Z,8.65
2023-01-11T00:15:19.290Z,10.08
2023-01-11T00:17:49.037Z,6.90
2023-01-11T00:20:19.319Z,9.28
2023-01-11T00:22:49.111Z,5.03
2023-01-11T00:25:18.808Z,5.72
2023-01-11T00:27:49.647Z,6.12
2023-01-11T00:30:19.604Z,7.07
2023-01-11T00:32:49.361Z,5.77
2023-01-11T00:35:18.959Z,7.37
2023-01-11T00:37:48.759Z,10.53
2023-01-11T00:40:18.358Z,6.23
2023-01-11T00:43:05.790Z,8.33
2023-01-11T00:45:53.206Z,4.57
2023-01-11T00:48:22.797Z,9.57
2023-01-11T00:50:55.875Z,5.47
2023-01-11T00:53:25.675Z,4.07
2023-01-11T00:55:55.444Z,7.13
2023-01-11T00:58:25.162Z,7.37
2023-01-11T01:00:54.905Z,5.53
2023-01-11T01:03:24.627Z,5.83
2023-01-11T01:05:55.983Z,7.57
2023-01-11T01:08:25.454Z,4.17
2023-01-11T01:10:55.179Z,2.57
2023-01-11T01:13:42.521Z,8.67
2023-01-11T01:16:12.267Z,7.42
2023-01-11T01:18:42.101Z,5.00
2023-01-11T01:21:11.928Z,6.40
2023-01-11T01:23:41.682Z,6.00
2023-01-11T01:26:11.659Z,3.72
2023-01-11T01:28:41.457Z,6.47
2023-01-11T01:31:11.230Z,3.53
2023-01-11T01:33:41.324Z,3.77
2023-01-11T01:36:11.456Z,4.08
2023-01-11T01:38:41.189Z,3.97
2023-01-11T01:41:13.799Z,6.42
2023-01-11T01:43:55.455Z,3.20
2023-01-11T01:46:30.626Z,2.92
2023-01-11T01:49:06.443Z,3.10
2023-01-11T01:51:38.949Z,3.90
2023-01-11T01:54:14.575Z,3.12
2023-01-11T01:56:47.666Z,5.35
2023-01-11T01:59:21.043Z,3.60
2023-01-11T02:01:52.749Z,5.95
2023-01-11T02:04:25.306Z,3.50
2023-01-11T02:07:00.923Z,2.47
2023-01-11T02:10:00.390Z,4.20
2023-01-11T02:12:33.177Z,3.77
2023-01-11T02:15:04.780Z,4.17
2023-01-11T02:17:35.002Z,3.25
2023-01-11T02:23:26.969Z,3.25
2023-01-11T02:26:19.254Z,5.40
2023-01-11T02:29:13.871Z,3.90
2023-01-11T02:32:04.546Z,3.83
2023-01-11T02:34:42.778Z,4.83
2023-01-11T02:37:27.288Z,4.83
2023-01-11T02:40:17.437Z,6.90
2023-01-11T02:43:13.364Z,4.80
2023-01-11T02:46:00.891Z,8.53
2023-01-11T02:48:45.443Z,3.60
2023-01-11T02:51:20.766Z,4.37
2023-01-11T02:53:56.337Z,4.58
2023-01-11T02:56:28.287Z,3.80
2023-01-11T02:59:00.870Z,4.50
2023-01-11T03:01:31.003Z,5.25
2023-01-11T03:04:00.757Z,5.43
2023-01-11T03:06:33.616Z,4.80
2023-01-11T03:09:15.275Z,4.00
2023-01-11T03:12:26.731Z,5.70
2023-01-11T03:14:59.495Z,4.23
2023-01-11T03:17:38.180Z,4.07
2023-01-11T03:20:15.656Z,5.25
2023-01-11T03:23:06.502Z,3.33
2023-01-11T03:25:41.932Z,3.20
2023-01-11T03:28:46.059Z,3.77
2023-01-11T03:31:39.586Z,2.90
2023-01-11T03:34:27.153Z,6.27
2023-01-11T03:36:59.914Z,5.13
2023-01-11T03:39:32.722Z,4.00
2023-01-11T03:42:05.271Z,3.63
2023-01-11T03:44:38.043Z,3.33
2023-01-11T03:47:10.882Z,6.03
2023-01-11T03:49:58.612Z,3.17
2023-01-11T03:52:31.057Z,3.33
2023-01-11T03:55:02.741Z,4.10
2023-01-11T03:57:38.574Z,2.80
2023-01-11T04:00:11.997Z,3.60
2023-01-11T04:02:42.819Z,3.70
2023-01-11T04:05:13.035Z,6.85
2023-01-11T04:07:42.754Z,4.17
2023-01-11T04:10:14.354Z,4.87
2023-01-11T04:12:45.566Z,3.23
2023-01-11T04:15:15.464Z,3.00
2023-01-11T04:17:45.364Z,3.80
2023-01-11T04:20:15.175Z,4.50
2023-01-11T04:22:44.911Z,3.20
2023-01-11T04:25:14.710Z,6.30
2023-01-11T04:27:44.465Z,3.57
2023-01-11T04:30:14.844Z,2.90
2023-01-11T04:32:44.622Z,3.40
2023-01-11T04:35:14.795Z,3.17
2023-01-11T04:37:44.478Z,4.35
2023-01-11T04:40:15.170Z,3.82
2023-01-11T04:42:46.393Z,2.37
2023-01-11T04:45:16.367Z,5.07
2023-01-11T04:47:46.103Z,2.17
2023-01-11T04:50:16.014Z,2.37
2023-01-11T04:52:45.745Z,2.50
2023-01-11T04:55:15.580Z,1.90
2023-01-11T04:57:46.057Z,1.83
2023-01-11T05:00:16.154Z,2.33
2023-01-11T05:02:45.905Z,5.43
2023-01-11T05:05:15.652Z,2.70
2023-01-11T05:07:45.388Z,4.90
2023-01-11T05:10:15.005Z,3.40
2023-01-11T05:12:46.390Z,3.93
2023-01-11T05:15:15.912Z,6.80
2023-01-11T05:17:45.659Z,5.13
2023-01-11T05:20:15.107Z,5.83
2023-01-11T05:22:44.843Z,4.33
2023-01-11T05:25:14.575Z,3.92
2023-01-11T05:27:44.309Z,5.93
2023-01-11T05:30:14.184Z,5.20
2023-01-11T05:32:43.924Z,4.33
2023-01-11T05:35:13.749Z,5.95
2023-01-11T05:37:43.264Z,7.65
2023-01-11T05:40:14.631Z,9.36
2023-01-11T05:42:45.617Z,7.65
2023-01-11T05:45:29.988Z,7.20
2023-01-11T05:48:01.319Z,12.60
2023-01-11T05:50:31.340Z,10.85
2023-01-11T05:53:01.103Z,10.43
2023-01-11T05:55:30.851Z,11.43
2023-01-11T05:58:00.909Z,13.75
2023-01-11T06:00:30.424Z,15.50
2023-01-11T06:03:02.347Z,25.30
2023-01-11T06:05:33.695Z,12.33
2023-01-11T06:08:03.452Z,14.87
2023-01-11T06:10:33.207Z,24.67
2023-01-11T06:13:20.573Z,25.40
2023-01-11T06:15:50.382Z,17.73
2023-01-11T06:18:20.280Z,17.32
2023-01-11T06:20:53.953Z,18.43
2023-01-11T06:23:24.361Z,16.87
2023-01-11T06:25:54.173Z,22.03
2023-01-11T06:28:24.325Z,14.05
2023-01-11T06:30:55.268Z,24.17
2023-01-11T06:33:26.540Z,18.20
2023-01-11T06:35:57.411Z,25.47
2023-01-11T06:41:16.497Z,24.50
2023-01-11T06:43:46.783Z,25.92
2023-01-11T06:46:18.904Z,13.77
2023-01-11T06:48:49.012Z,22.60
2023-01-11T06:51:18.774Z,20.37
2023-01-11T06:53:48.882Z,20.92
2023-01-11T06:56:19.293Z,19.93
2023-01-11T06:58:49.282Z,14.93
2023-01-11T07:01:19.709Z,19.73
2023-01-11T07:03:49.493Z,20.53
2023-01-11T07:06:19.235Z,14.63
2023-01-11T07:08:49.004Z,13.73
2023-01-11T07:11:18.835Z,18.67
2023-01-11T07:13:48.365Z,18.85
2023-01-11T07:16:19.007Z,13.53
2023-01-11T07:18:48.802Z,21.63
2023-01-11T07:21:18.542Z,18.13
2023-01-11T07:23:49.564Z,12.10
2023-01-11T07:26:19.335Z,17.07
2023-01-11T07:28:49.200Z,16.73
2023-01-11T07:31:19.318Z,18.02
2023-01-11T07:33:49.064Z,20.50
2023-01-11T07:36:18.517Z,20.73
2023-01-11T07:38:48.732Z,20.70
2023-01-11T07:41:36.257Z,19.43
2023-01-11T07:44:10.451Z,14.50
2023-01-11T07:46:40.397Z,19.03
2023-01-11T07:49:10.205Z,11.90
2023-01-11T07:51:40.121Z,13.07
2023-01-11T07:54:11.131Z,16.93
2023-01-11T07:56:40.952Z,13.77
2023-01-11T07:59:11.491Z,18.70
2023-01-11T08:01:41.546Z,17.62
2023-01-11T08:04:13.131Z,21.95
2023-01-11T08:06:42.952Z,23.40
2023-01-11T08:09:12.776Z,22.03
2023-01-11T08:12:00.340Z,21.27
2023-01-11T08:14:41.769Z,20.40
2023-01-11T08:17:16.912Z,21.00
2023-01-11T08:19:46.639Z,28.70
2023-01-11T08:22:17.966Z,20.17
2023-01-11T08:24:47.690Z,24.20
2023-01-11T08:27:17.536Z,27.20
2023-01-11T08:29:47.303Z,29.37
2023-01-11T08:32:17.392Z,19.00
2023-01-11T08:34:47.900Z,15.93
2023-01-11T08:37:17.719Z,24.50
2023-01-11T08:39:48.660Z,26.00
2023-01-11T08:42:18.513Z,17.73
2023-01-11T08:44:48.302Z,24.03
2023-01-11T08:47:18.084Z,19.60
2023-01-11T08:49:47.840Z,18.97
2023-01-11T08:52:17.710Z,19.15
2023-01-11T08:54:47.416Z,22.57
2023-01-11T08:57:17.248Z,22.50
2023-01-11T08:59:46.987Z,25.40
2023-01-11T09:02:17.003Z,17.47
2023-01-11T09:04:47.093Z,26.07
2023-01-11T09:07:16.892Z,18.30
2023-01-11T09:09:47.393Z,30.80
2023-01-11T09:12:17.250Z,18.17
2023-01-11T09:14:47.102Z,18.73
2023-01-11T09:17:16.841Z,21.10
2023-01-11T09:19:46.619Z,19.30
2023-01-11T09:22:16.286Z,16.23
2023-01-11T09:24:46.291Z,15.37
2023-01-11T09:27:16.458Z,15.47
2023-01-11T09:29:46.476Z,30.73
2023-01-11T09:32:16.220Z,15.27
2023-01-11T09:34:47.257Z,22.47
2023-01-11T09:37:17.547Z,35.33
2023-01-11T09:39:47.674Z,26.13
2023-01-11T09:42:39.306Z,21.17
2023-01-11T09:45:27.580Z,21.10
2023-01-11T09:48:10.830Z,25.90
2023-01-11T09:50:47.618Z,25.27
2023-01-11T09:53:25.138Z,24.53
2023-01-11T09:55:58.484Z,22.45
2023-01-11T09:58:53.538Z,15.23
2023-01-11T10:01:49.418Z,22.97
2023-01-11T10:04:35.592Z,27.67
2023-01-11T10:07:44.074Z,20.27
2023-01-11T10:18:28.855Z,23.63
2023-01-11T10:18:52.985Z,32.85
2023-01-11T10:21:13.099Z,19.48
2023-01-11T10:23:57.767Z,19.83
2023-01-11T10:26:31.853Z,20.27
2023-01-11T10:29:11.932Z,20.50
2023-01-11T10:31:51.798Z,27.73
2023-01-11T10:34:23.855Z,19.87
2023-01-11T10:37:16.653Z,13.97
2023-01-11T10:40:27.544Z,25.70
2023-01-11T10:43:08.008Z,22.02
2023-01-11T10:45:55.415Z,21.67
2023-01-11T10:48:37.074Z,20.27
2023-01-11T10:51:37.540Z,24.27
2023-01-11T10:54:16.768Z,12.42
2023-01-11T10:57:04.749Z,15.90
2023-01-11T10:59:39.426Z,16.32
2023-01-11T11:02:21.412Z,19.62
2023-01-11T11:05:26.099Z,20.23
2023-01-11T11:08:04.486Z,19.63
2023-01-11T11:10:53.288Z,22.80
2023-01-11T11:13:45.406Z,17.47
2023-01-11T11:16:26.591Z,18.47
2023-01-11T11:18:59.462Z,18.70
2023-01-11T11:21:33.661Z,18.27
2023-01-11T11:24:17.717Z,19.85
2023-01-11T11:26:50.283Z,17.85
2023-01-11T11:29:25.945Z,14.05
2023-01-11T11:31:58.455Z,13.50
2023-01-11T11:34:29.141Z,11.87
2023-01-11T11:37:00.771Z,19.57
2023-01-11T11:39:33.026Z,15.43
2023-01-11T11:42:11.091Z,17.57
2023-01-11T11:44:41.120Z,10.17
2023-01-11T11:47:18.353Z,12.83
2023-01-11T11:49:48.115Z,20.33
2023-01-11T11:52:19.148Z,17.05
2023-01-11T11:54:56.598Z,14.43
2023-01-11T11:57:29.397Z,20.43
2023-01-11T12:00:05.013Z,17.83
2023-01-11T12:02:37.324Z,22.73
2023-01-11T12:05:11.127Z,17.23
2023-01-11T12:07:55.251Z,23.17
2023-01-11T12:10:23.913Z,22.47
2023-01-11T12:12:56.740Z,18.80
2023-01-11T12:15:34.896Z,21.53
2023-01-11T12:18:31.399Z,15.68
2023-01-11T12:21:09.877Z,15.33
2023-01-11T12:23:40.556Z,20.10
2023-01-11T12:26:22.758Z,15.30
2023-01-11T12:29:23.419Z,14.65
2023-01-11T12:32:11.183Z,22.00
2023-01-11T12:35:05.588Z,16.63
2023-01-11T12:38:05.488Z,12.40
2023-01-11T12:40:52.592Z,22.65
2023-01-11T12:45:58.234Z,21.15
2023-01-11T12:48:37.092Z,27.47
2023-01-11T12:51:32.536Z,17.42
2023-01-11T12:54:10.967Z,14.40
2023-01-11T12:56:46.364Z,21.53
2023-01-11T12:59:35.278Z,17.50
2023-01-11T13:02:14.588Z,12.83
2023-01-11T13:04:50.341Z,13.13
2023-01-11T13:07:45.235Z,17.13
2023-01-11T13:10:17.726Z,17.57
2023-01-11T13:12:58.996Z,10.97
2023-01-11T13:15:44.949Z,15.47
2023-01-11T13:18:20.368Z,17.57
2023-01-11T13:21:06.769Z,20.33
2023-01-11T13:23:54.787Z,19.33
2023-01-11T13:26:29.845Z,16.27
2023-01-11T13:29:18.906Z,20.85
2023-01-11T13:31:51.015Z,20.97
2023-01-11T13:34:26.693Z,16.87
2023-01-11T13:39:53.645Z,22.62
2023-01-11T13:42:31.767Z,16.23
2023-01-11T13:45:04.867Z,19.82
2023-01-11T13:47:47.204Z,16.42
2023-01-11T13:50:29.001Z,15.93
2023-01-11T13:53:06.361Z,19.27
2023-01-11T13:55:50.501Z,25.45
2023-01-11T13:58:24.994Z,18.00
2023-01-11T14:01:00.139Z,18.20
2023-01-11T14:03:35.860Z,25.00
2023-01-11T14:06:21.766Z,15.95
2023-01-11T14:09:05.526Z,22.03
2023-01-11T14:11:44.469Z,16.80
2023-01-11T14:14:18.165Z,20.63
2023-01-11T14:17:02.874Z,17.37
2023-01-11T14:19:54.846Z,21.53
2023-01-11T14:22:42.067Z,23.37
2023-01-11T14:25:23.289Z,18.42
2023-01-11T14:28:12.487Z,14.13
2023-01-11T14:30:55.221Z,16.77
2023-01-11T14:33:39.654Z,22.97
2023-01-11T14:36:40.142Z,15.15
2023-01-11T14:39:24.481Z,20.83
2023-01-11T14:42:05.798Z,19.03
2023-01-11T14:44:55.000Z,16.93
2023-01-11T14:47:42.013Z,12.80
2023-01-11T14:50:22.639Z,24.95
2023-01-11T14:52:54.572Z,16.95
2023-01-11T14:55:27.123Z,12.90
2023-01-11T14:58:03.170Z,16.70
2023-01-11T15:00:35.674Z,13.33
2023-01-11T15:03:11.692Z,16.12
2023-01-11T15:05:52.601Z,19.40
2023-01-11T15:08:27.655Z,28.10
2023-01-11T15:10:59.603Z,21.20
2023-01-11T15:13:33.823Z,17.87
2023-01-11T15:16:36.460Z,14.53
2023-01-11T15:19:11.758Z,15.03
2023-01-11T15:21:44.661Z,18.07
2023-01-11T15:24:32.524Z,12.23
2023-01-11T15:27:03.845Z,17.70
2023-01-11T15:29:36.294Z,19.50
2023-01-11T15:32:22.126Z,10.07
2023-01-11T15:34:52.791Z,12.70
2023-01-11T15:37:34.670Z,14.83
2023-01-11T15:43:21.833Z,23.00
2023-01-11T15:46:31.679Z,17.53
2023-01-11T15:49:21.196Z,12.68
2023-01-11T15:52:19.227Z,18.80
2023-01-11T15:55:25.096Z,15.47
2023-01-11T15:58:19.072Z,24.93
2023-01-11T16:01:08.256Z,13.43
2023-01-11T16:04:02.133Z,9.13
2023-01-11T16:06:37.889Z,23.27
2023-01-11T16:09:24.993Z,23.17
2023-01-11T16:12:01.987Z,14.03
2023-01-11T16:14:43.582Z,14.63
2023-01-11T16:17:14.761Z,15.97
2023-01-11T16:19:45.831Z,16.00
2023-01-11T16:22:20.818Z,22.97
2023-01-11T16:24:53.495Z,12.87
2023-01-11T16:27:26.708Z,19.37
2023-01-11T16:29:57.550Z,13.83
2023-01-11T16:32:35.481Z,20.85
2023-01-11T16:35:19.922Z,9.90
2023-01-11T16:37:55.612Z,22.30
2023-01-11T16:40:39.820Z,13.53
2023-01-11T16:43:27.686Z,11.23
2023-01-11T16:45:57.522Z,20.77
2023-01-11T16:48:29.465Z,15.60
2023-01-11T16:51:14.248Z,18.90
2023-01-11T16:53:46.960Z,15.70
2023-01-11T16:56:19.511Z,13.43
2023-01-11T16:59:07.442Z,20.15
2023-01-11T17:01:54.704Z,20.33
2023-01-11T17:04:29.640Z,13.38
2023-01-11T17:07:11.000Z,12.87
2023-01-11T17:09:43.812Z,18.73
2023-01-11T17:12:19.060Z,15.97
2023-01-11T17:15:08.926Z,12.73
2023-01-11T17:17:39.549Z,16.90
2023-01-11T17:20:21.872Z,11.80
2023-01-11T17:22:53.756Z,19.40
2023-01-11T17:25:37.302Z,15.30
2023-01-11T17:28:06.808Z,13.20
2023-01-11T17:30:38.313Z,14.30
2023-01-11T17:33:09.611Z,11.97
2023-01-11T17:35:42.361Z,14.18
2023-01-11T17:38:15.152Z,15.53
2023-01-11T17:40:46.333Z,15.15
2023-01-11T17:43:45.525Z,16.03
2023-01-11T17:46:21.678Z,12.35
2023-01-11T17:51:31.376Z,15.08
2023-01-11T17:54:01.047Z,17.70
2023-01-11T17:56:41.525Z,20.57
2023-01-11T17:59:22.217Z,10.93
2023-01-11T18:02:02.775Z,17.95
2023-01-11T18:04:33.002Z,16.23
2023-01-11T18:07:19.906Z,19.40
2023-01-11T18:09:51.827Z,20.57
2023-01-11T18:12:30.800Z,10.58
2023-01-11T18:15:03.595Z,14.20
2023-01-11T18:17:42.560Z,11.90
2023-01-11T18:20:20.502Z,19.30
2023-01-11T18:23:05.259Z,17.80
2023-01-11T18:25:36.305Z,15.07
2023-01-11T18:28:28.069Z,12.03
2023-01-11T18:31:01.903Z,11.90
2023-01-11T18:33:34.401Z,16.87
2023-01-11T18:36:05.287Z,17.30
2023-01-11T18:38:36.969Z,18.32
2023-01-11T18:41:26.843Z,15.37
2023-01-11T18:43:56.941Z,16.17
2023-01-11T18:46:26.404Z,15.60
2023-01-11T18:48:56.161Z,13.73
2023-01-11T18:51:31.748Z,15.93
2023-01-11T18:54:01.250Z,12.77
2023-01-11T18:56:30.877Z,17.30
2023-01-11T18:59:00.640Z,27.17
2023-01-11T19:01:35.246Z,17.90
2023-01-11T19:04:03.017Z,14.23
2023-01-11T19:06:32.782Z,15.70
2023-01-11T19:09:02.669Z,14.17
2023-01-11T19:11:32.408Z,8.83
2023-01-11T19:14:02.132Z,17.47
2023-01-11T19:16:31.876Z,15.93
2023-01-11T19:19:01.838Z,16.97
2023-01-11T19:21:31.576Z,12.93
2023-01-11T19:24:01.359Z,17.10
2023-01-11T19:26:31.055Z,20.77
2023-01-11T19:29:01.156Z,11.75
2023-01-11T19:31:31.505Z,15.18
2023-01-11T19:34:01.419Z,11.75
2023-01-11T19:36:32.230Z,10.43
2023-01-11T19:39:02.290Z,13.60
2023-01-11T19:41:33.634Z,20.27
2023-01-11T19:44:03.454Z,14.40
2023-01-11T19:46:33.280Z,16.67
2023-01-11T19:49:02.777Z,18.40
2023-01-11T19:51:32.542Z,17.40
2023-01-11T19:54:02.304Z,18.60
2023-01-11T19:56:32.724Z,16.43
2023-01-11T19:59:02.506Z,16.03
2023-01-11T20:01:32.275Z,14.33
2023-01-11T20:04:01.948Z,17.90
2023-01-11T20:06:31.892Z,16.10
2023-01-11T20:09:01.675Z,12.67
2023-01-11T20:11:31.553Z,18.07
2023-01-11T20:14:01.283Z,11.30
2023-01-11T20:16:31.022Z,16.77
2023-01-11T20:19:00.754Z,20.63
2023-01-11T20:21:32.923Z,19.13
2023-01-11T20:24:03.555Z,19.67
2023-01-11T20:26:34.016Z,17.37
2023-01-11T20:29:05.507Z,14.93
2023-01-11T20:31:35.822Z,17.53
2023-01-11T20:34:10.687Z,16.32
2023-01-11T20:36:42.125Z,15.50
2023-01-11T20:39:12.595Z,19.20
2023-01-11T20:41:48.490Z,22.60
2023-01-11T20:44:24.341Z,16.37
2023-01-11T20:46:55.650Z,27.50
2023-01-11T20:49:28.801Z,20.63
2023-01-11T20:51:58.681Z,22.90
2023-01-11T20:54:28.126Z,14.63
2023-01-11T20:57:00.685Z,20.30
2023-01-11T20:59:32.105Z,19.62
2023-01-11T21:02:01.813Z,17.93
2023-01-11T21:04:31.701Z,16.33
2023-01-11T21:07:01.436Z,19.67
2023-01-11T21:09:30.966Z,21.10
2023-01-11T21:12:01.027Z,16.05
2023-01-11T21:14:30.930Z,14.58
2023-01-11T21:17:00.669Z,20.33
2023-01-11T21:19:31.100Z,18.42
2023-01-11T21:22:01.250Z,16.17
2023-01-11T21:24:31.384Z,17.12
2023-01-11T21:27:01.187Z,14.93
2023-01-11T21:29:31.367Z,26.95
2023-01-11T21:32:01.127Z,15.57
2023-01-11T21:34:30.769Z,11.93
2023-01-11T21:37:00.517Z,17.53
2023-01-11T21:39:30.240Z,21.77
2023-01-11T21:42:00.035Z,9.00
2023-01-11T21:44:33.432Z,14.03
2023-01-11T21:47:05.778Z,16.35
2023-01-11T21:49:35.497Z,16.50
2023-01-11T21:52:05.246Z,13.10
2023-01-11T21:54:35.068Z,21.77
2023-01-11T21:57:04.655Z,10.35
2023-01-11T21:59:35.736Z,12.50
2023-01-11T22:02:05.852Z,15.00
2023-01-11T22:04:36.768Z,18.17
2023-01-11T22:07:06.493Z,17.73
2023-01-11T22:09:36.261Z,10.60
2023-01-11T22:12:06.136Z,15.17
2023-01-11T22:14:35.940Z,18.40
2023-01-11T22:17:05.711Z,16.07
2023-01-11T22:19:35.776Z,11.25
2023-01-11T22:22:06.286Z,15.43
2023-01-11T22:24:36.058Z,13.10
2023-01-11T22:27:05.649Z,9.70
2023-01-11T22:29:35.390Z,15.23
2023-01-11T22:32:05.214Z,9.50
2023-01-11T22:34:35.409Z,11.93
2023-01-11T22:37:05.281Z,14.43
2023-01-11T22:39:36.663Z,16.30
2023-01-11T22:42:06.919Z,12.50
2023-01-11T22:44:36.647Z,10.57
2023-01-11T22:47:06.774Z,9.10
2023-01-11T22:49:36.516Z,12.50
2023-01-11T22:52:08.395Z,9.15
2023-01-11T22:54:38.131Z,8.97
2023-01-11T22:57:07.887Z,7.07
2023-01-11T22:59:37.895Z,5.55
2023-01-11T23:02:07.906Z,3.53
2023-01-11T23:04:37.641Z,3.83
2023-01-11T23:07:07.721Z,6.62
2023-01-11T23:09:37.512Z,5.03
2023-01-11T23:12:27.004Z,4.57
2023-01-11T23:14:57.016Z,2.40
2023-01-11T23:17:27.027Z,2.08
2023-01-11T23:19:56.759Z,3.30
2023-01-11T23:22:26.705Z,4.75
2023-01-11T23:24:56.775Z,6.03
2023-01-11T23:27:26.593Z,5.10
2023-01-11T23:29:56.811Z,4.62
2023-01-11T23:32:26.258Z,8.07
2023-01-11T23:34:56.165Z,5.87
2023-01-11T23:37:25.907Z,2.03
2023-01-11T23:39:55.644Z,2.67
2023-01-11T23:42:27.537Z,3.67
2023-01-11T23:44:58.812Z,5.67
2023-01-11T23:47:30.574Z,3.75
2023-01-11T23:50:01.358Z,3.63
2023-01-11T23:52:32.980Z,3.90
2023-01-11T23:55:03.036Z,7.85
2023-01-11T23:57:32.778Z,7.97
